createdAt,value
2022-10-18T00:02:12.863Z,6.90
2022-10-18T00:06:20.485Z,7.20
2022-10-18T00:10:30.374Z,7.40
2022-10-18T00:14:40.487Z,6.10
2022-10-18T00:18:49.392Z,8.00
2022-10-18T00:22:56.931Z,6.60
2022-10-18T00:27:04.724Z,6.60
2022-10-18T00:31:20.036Z,7.40
2022-10-18T00:35:27.695Z,7.30
2022-10-18T00:39:35.672Z,7.60
2022-10-18T00:43:57.450Z,8.00
2022-10-18T00:48:07.619Z,7.10
2022-10-18T00:52:18.867Z,7.80
2022-10-18T00:56:26.206Z,7.30
2022-10-18T01:00:39.175Z,7.30
2022-10-18T01:04:47.302Z,7.10
2022-10-18T01:09:04.976Z,8.30
2022-10-18T01:13:26.016Z,7.90
2022-10-18T01:17:42.284Z,8.50
2022-10-18T01:21:55.227Z,8.00
2022-10-18T01:26:10.668Z,8.40
2022-10-18T01:30:37.708Z,7.80
2022-10-18T01:34:47.630Z,7.60
2022-10-18T01:38:57.589Z,7.20
2022-10-18T01:47:16.453Z,8.70
2022-10-18T01:51:27.513Z,9.30
2022-10-18T01:55:42.691Z,9.40
2022-10-18T01:59:56.552Z,8.40
2022-10-18T02:04:09.554Z,8.40
2022-10-18T02:08:23.520Z,9.00
2022-10-18T02:12:32.589Z,9.10
2022-10-18T02:16:43.196Z,8.30
2022-10-18T02:20:52.026Z,8.60
2022-10-18T02:25:01.687Z,8.00
2022-10-18T02:29:09.548Z,6.80
2022-10-18T02:33:22.813Z,7.80
2022-10-18T02:37:35.480Z,7.80
2022-10-18T02:41:44.231Z,7.90
2022-10-18T02:45:51.726Z,7.00
2022-10-18T02:49:59.109Z,6.60
2022-10-18T02:54:08.719Z,5.90
2022-10-18T02:58:16.262Z,7.20
2022-10-18T03:02:23.793Z,7.50
2022-10-18T03:06:31.914Z,7.40
2022-10-18T03:10:39.811Z,6.90
2022-10-18T03:14:47.373Z,6.70
2022-10-18T03:18:54.695Z,6.60
2022-10-18T03:23:02.495Z,7.20
2022-10-18T03:27:10.250Z,8.10
2022-10-18T03:31:18.237Z,7.50
2022-10-18T03:35:26.452Z,6.70
2022-10-18T03:39:34.279Z,6.50
2022-10-18T03:43:42.807Z,6.00
2022-10-18T03:47:50.943Z,6.80
2022-10-18T03:51:58.441Z,7.50
2022-10-18T03:56:08.346Z,7.10
2022-10-18T04:00:17.179Z,7.30
2022-10-18T04:04:25.197Z,6.40
2022-10-18T04:08:32.854Z,7.50
2022-10-18T04:12:40.516Z,6.40
2022-10-18T04:16:48.034Z,7.70
2022-10-18T04:20:56.249Z,7.70
2022-10-18T04:25:03.993Z,7.40
2022-10-18T04:29:12.204Z,7.60
2022-10-18T04:33:20.120Z,6.60
2022-10-18T04:37:29.268Z,6.50
2022-10-18T04:41:37.260Z,7.10
2022-10-18T04:45:48.301Z,7.20
2022-10-18T04:49:56.315Z,8.30
2022-10-18T04:54:03.812Z,8.20
2022-10-18T04:58:12.138Z,6.80
2022-10-18T05:02:20.145Z,7.00
2022-10-18T05:06:27.481Z,7.20
2022-10-18T05:10:34.738Z,8.00
2022-10-18T05:14:42.002Z,8.10
2022-10-18T05:18:50.461Z,7.30
2022-10-18T05:23:00.033Z,7.20
2022-10-18T05:27:08.101Z,7.40
2022-10-18T05:31:15.479Z,7.90
2022-10-18T05:35:22.664Z,7.90
2022-10-18T05:39:30.781Z,8.40
2022-10-18T05:43:39.202Z,7.50
2022-10-18T05:47:46.828Z,8.00
2022-10-18T05:51:55.308Z,9.30
2022-10-18T05:56:05.793Z,9.10
2022-10-18T06:00:16.177Z,9.00
2022-10-18T06:04:23.945Z,7.90
2022-10-18T06:08:31.936Z,8.80
2022-10-18T06:12:39.601Z,9.00
2022-10-18T06:16:47.340Z,11.40
2022-10-18T06:20:59.925Z,10.90
2022-10-18T06:25:09.636Z,10.00
2022-10-18T06:29:17.756Z,10.70
2022-10-18T06:33:25.930Z,10.90
2022-10-18T06:37:35.631Z,10.70
2022-10-18T06:41:43.429Z,10.10
2022-10-18T06:45:51.707Z,8.90
2022-10-18T06:50:01.805Z,9.40
2022-10-18T06:54:18.157Z,9.80
2022-10-18T06:58:26.598Z,9.90
2022-10-18T07:02:35.006Z,8.40
2022-10-18T07:06:42.848Z,8.70
2022-10-18T07:10:56.007Z,8.70
2022-10-18T07:15:08.271Z,9.10
2022-10-18T07:19:17.906Z,9.30
2022-10-18T07:23:25.633Z,9.30
2022-10-18T07:27:33.979Z,8.90
2022-10-18T07:31:42.516Z,8.60
2022-10-18T07:35:50.385Z,8.30
2022-10-18T07:39:58.933Z,8.30
2022-10-18T07:44:07.770Z,8.40
2022-10-18T07:48:17.114Z,8.20
2022-10-18T07:52:25.225Z,7.90
2022-10-18T07:56:33.263Z,8.60
2022-10-18T08:00:40.905Z,9.20
2022-10-18T08:04:49.504Z,10.20
2022-10-18T08:08:57.121Z,9.20
2022-10-18T08:13:04.676Z,9.10
2022-10-18T08:17:12.713Z,8.30
2022-10-18T08:21:21.990Z,8.60
2022-10-18T08:25:29.765Z,7.70
2022-10-18T08:29:38.059Z,8.30
2022-10-18T08:33:46.608Z,7.60
2022-10-18T08:37:54.782Z,7.70
2022-10-18T08:42:21.759Z,8.30
2022-10-18T08:46:30.487Z,7.50
2022-10-18T08:50:41.522Z,7.90
2022-10-18T08:55:02.494Z,7.40
2022-10-18T08:59:12.267Z,7.70
2022-10-18T09:03:28.174Z,7.60
2022-10-18T09:08:00.901Z,8.10
2022-10-18T09:12:22.541Z,7.50
2022-10-18T09:16:38.624Z,7.30
2022-10-18T09:20:54.314Z,7.50
2022-10-18T09:25:07.840Z,7.80
2022-10-18T09:29:34.879Z,7.30
2022-10-18T09:33:52.570Z,7.00
2022-10-18T09:38:04.178Z,7.70
2022-10-18T09:42:18.180Z,7.40
2022-10-18T09:46:29.359Z,7.20
2022-10-18T09:50:40.681Z,7.80
2022-10-18T09:54:54.124Z,8.00
2022-10-18T09:59:05.157Z,8.30
2022-10-18T10:03:16.054Z,7.80
2022-10-18T10:07:25.792Z,7.90
2022-10-18T10:11:37.973Z,7.80
2022-10-18T10:15:50.459Z,8.60
2022-10-18T10:20:00.777Z,8.20
2022-10-18T10:24:09.143Z,7.70
2022-10-18T10:28:20.414Z,8.30
2022-10-18T10:32:31.033Z,7.60
2022-10-18T10:36:50.642Z,8.30
2022-10-18T10:40:59.486Z,7.60
2022-10-18T10:45:07.615Z,8.60
2022-10-18T10:49:39.280Z,8.50
2022-10-18T10:53:52.953Z,8.40
2022-10-18T10:58:00.793Z,8.00
2022-10-18T11:02:32.262Z,7.50
2022-10-18T11:06:55.175Z,8.20
2022-10-18T11:11:11.047Z,7.90
2022-10-18T11:15:25.226Z,7.80
2022-10-18T11:19:41.904Z,8.50
2022-10-18T11:23:49.973Z,7.60
2022-10-18T11:28:01.199Z,8.10
2022-10-18T11:32:15.611Z,8.40
2022-10-18T11:36:31.225Z,8.30
2022-10-18T11:40:49.715Z,8.50
2022-10-18T11:45:08.935Z,9.30
2022-10-18T11:49:24.371Z,8.20
2022-10-18T11:53:37.011Z,8.90
2022-10-18T11:57:56.315Z,8.50
2022-10-18T12:02:21.659Z,8.70
2022-10-18T12:06:32.141Z,8.40
2022-10-18T12:10:59.971Z,9.20
2022-10-18T12:15:17.946Z,9.10
2022-10-18T12:19:29.610Z,8.90
2022-10-18T12:23:44.486Z,9.00
2022-10-18T12:27:58.494Z,9.00
2022-10-18T12:32:09.799Z,8.40
2022-10-18T12:36:44.441Z,8.90
2022-10-18T12:40:54.428Z,8.80
2022-10-18T12:45:06.737Z,9.40
2022-10-18T12:49:19.403Z,8.50
2022-10-18T12:53:29.933Z,8.50
2022-10-18T12:58:12.784Z,9.40
2022-10-18T13:02:40.565Z,8.30
2022-10-18T13:07:23.951Z,8.50
2022-10-18T13:11:36.195Z,9.80
2022-10-18T13:15:47.538Z,9.00
2022-10-18T13:20:24.923Z,9.00
2022-10-18T13:24:34.649Z,8.10
2022-10-18T13:28:48.004Z,8.20
2022-10-18T13:33:01.141Z,8.40
2022-10-18T13:37:20.563Z,8.50
2022-10-18T13:41:32.789Z,8.70
2022-10-18T13:45:57.470Z,9.40
2022-10-18T13:50:32.746Z,8.90
2022-10-18T13:54:55.140Z,9.50
2022-10-18T13:59:23.141Z,8.80
2022-10-18T14:03:58.716Z,8.90
2022-10-18T14:08:12.145Z,10.20
2022-10-18T14:12:33.132Z,10.80
2022-10-18T14:16:45.168Z,8.30
2022-10-18T14:21:12.813Z,8.70
2022-10-18T14:25:27.374Z,8.50
2022-10-18T14:29:34.792Z,8.10
2022-10-18T14:33:44.728Z,8.90
2022-10-18T14:37:54.060Z,9.10
2022-10-18T14:42:03.211Z,7.90
2022-10-18T14:46:20.764Z,6.20
2022-10-18T14:50:30.946Z,4.10
2022-10-18T14:54:40.357Z,3.10
2022-10-18T14:58:48.905Z,2.90
2022-10-18T15:02:56.856Z,2.80
2022-10-18T15:07:06.865Z,2.40
2022-10-18T15:11:17.443Z,2.40
2022-10-18T15:15:29.990Z,2.10
2022-10-18T15:19:42.017Z,1.90
2022-10-18T15:23:50.328Z,2.10
2022-10-18T15:27:59.935Z,2.00
2022-10-18T15:32:20.752Z,2.00
2022-10-18T15:36:33.398Z,1.70
2022-10-18T15:40:44.345Z,1.60
2022-10-18T15:44:53.146Z,2.00
2022-10-18T15:49:20.004Z,1.60
2022-10-18T15:53:42.697Z,1.40
2022-10-18T15:57:50.594Z,1.30
2022-10-18T16:01:58.575Z,1.70
2022-10-18T16:06:12.348Z,1.70
2022-10-18T16:10:23.575Z,1.70
2022-10-18T16:14:32.187Z,1.70
2022-10-18T16:18:40.611Z,3.00
2022-10-18T16:22:48.529Z,5.10
2022-10-18T16:26:56.331Z,7.70
2022-10-18T16:31:05.396Z,4.00
2022-10-18T16:35:13.981Z,3.20
2022-10-18T16:39:24.231Z,4.40
2022-10-18T16:43:31.988Z,4.10
2022-10-18T16:47:40.353Z,3.90
2022-10-18T16:51:47.868Z,4.80
2022-10-18T16:55:58.245Z,3.70
2022-10-18T17:00:07.223Z,4.90
2022-10-18T17:04:15.896Z,4.40
2022-10-18T17:08:25.536Z,3.90
2022-10-18T17:12:33.712Z,3.00
2022-10-18T17:16:43.568Z,3.90
2022-10-18T17:20:54.591Z,4.50
2022-10-18T17:25:02.473Z,4.00
2022-10-18T17:29:10.743Z,3.80
2022-10-18T17:33:19.815Z,3.50
2022-10-18T17:37:28.435Z,3.40
2022-10-18T17:41:37.393Z,2.90
2022-10-18T17:45:51.254Z,3.00
2022-10-18T17:49:59.631Z,3.90
2022-10-18T17:54:08.216Z,3.10
2022-10-18T17:58:18.860Z,3.90
2022-10-18T18:02:26.869Z,3.60
2022-10-18T18:06:36.180Z,4.00
2022-10-18T18:10:44.720Z,6.00
2022-10-18T18:14:53.343Z,4.90
2022-10-18T18:19:04.079Z,5.30
2022-10-18T18:23:13.900Z,7.20
2022-10-18T18:27:21.840Z,5.60
2022-10-18T18:31:34.340Z,5.40
2022-10-18T18:35:46.677Z,4.80
2022-10-18T18:39:54.776Z,6.00
2022-10-18T18:44:04.713Z,5.50
2022-10-18T18:48:16.339Z,7.00
2022-10-18T18:52:27.697Z,6.50
2022-10-18T18:56:37.029Z,5.60
2022-10-18T19:00:45.780Z,5.90
2022-10-18T19:04:53.943Z,5.80
2022-10-18T19:09:03.520Z,5.70
2022-10-18T19:13:12.019Z,5.70
2022-10-18T19:17:19.776Z,6.00
2022-10-18T19:21:28.583Z,5.60
2022-10-18T19:25:36.781Z,5.90
2022-10-18T19:29:46.401Z,5.60
2022-10-18T19:33:59.739Z,5.10
2022-10-18T19:38:08.130Z,5.20
2022-10-18T19:42:20.495Z,5.00
2022-10-18T19:46:33.002Z,4.60
2022-10-18T19:50:41.400Z,5.50
2022-10-18T19:54:51.552Z,6.00
2022-10-18T19:58:59.864Z,5.90
2022-10-18T20:03:08.858Z,6.20
2022-10-18T20:07:16.689Z,6.70
2022-10-18T20:11:26.655Z,7.30
2022-10-18T20:15:34.467Z,6.70
2022-10-18T20:19:42.206Z,6.60
2022-10-18T20:23:50.285Z,7.00
2022-10-18T20:27:59.281Z,8.00
2022-10-18T20:32:09.715Z,7.10
2022-10-18T20:36:19.236Z,6.30
2022-10-18T20:40:27.160Z,6.70
2022-10-18T20:44:36.567Z,7.00
2022-10-18T20:48:45.323Z,6.10
2022-10-18T20:52:54.490Z,6.40
2022-10-18T20:57:02.842Z,5.70
2022-10-18T21:01:12.733Z,6.20
2022-10-18T21:05:20.831Z,6.00
2022-10-18T21:09:29.061Z,6.00
2022-10-18T21:13:36.868Z,5.20
2022-10-18T21:17:44.954Z,5.00
2022-10-18T21:21:55.139Z,5.00
2022-10-18T21:26:02.977Z,4.90
2022-10-18T21:34:25.288Z,5.20
2022-10-18T21:38:34.122Z,4.50
2022-10-18T21:42:41.698Z,5.10
2022-10-18T21:46:49.634Z,5.20
2022-10-18T21:50:57.461Z,5.00
2022-10-18T21:55:07.349Z,5.00
2022-10-18T21:59:17.501Z,5.10
2022-10-18T22:03:25.519Z,5.00
2022-10-18T22:07:34.780Z,5.20
2022-10-18T22:11:46.859Z,5.50
2022-10-18T22:15:55.727Z,5.50
2022-10-18T22:20:04.198Z,5.40
2022-10-18T22:24:13.133Z,4.90
2022-10-18T22:28:21.351Z,5.20
2022-10-18T22:32:29.408Z,4.90
2022-10-18T22:36:37.627Z,5.40
2022-10-18T22:40:45.689Z,5.40
2022-10-18T22:44:53.812Z,5.50
2022-10-18T22:49:01.597Z,5.70
2022-10-18T22:53:09.079Z,7.30
2022-10-18T22:57:17.312Z,6.40
2022-10-18T23:01:26.545Z,6.00
2022-10-18T23:05:40.067Z,5.50
2022-10-18T23:09:47.989Z,6.40
2022-10-18T23:13:56.151Z,7.10
2022-10-18T23:18:05.001Z,6.80
2022-10-18T23:22:15.337Z,6.60
2022-10-18T23:26:25.234Z,7.00
2022-10-18T23:30:33.010Z,7.10
2022-10-18T23:34:40.962Z,6.70
2022-10-18T23:38:48.738Z,6.80
2022-10-18T23:42:56.283Z,6.40
2022-10-18T23:47:03.800Z,6.00
2022-10-18T23:51:12.237Z,6.80
2022-10-18T23:55:20.866Z,6.80
2022-10-18T23:59:29.403Z,6.80
